Time;durP1;ratioP1;P1;durP2;ratioP2;P2;SDS_P1;SDS_P2;PMS_P1;PMS_P2;Temp;Humidity;BMP_temperature;BMP_pressure;BME280_temperature;BME280_humidity;BME280_pressure;Samples;Min_cycle;Max_cycle;Signal;HPM_P1;HPM_P2
2023/07/22 00:00:44;;;;;;;12.55;7.32;;;13.80;99.90;;;;;;5053779;28;20123;-68
2023/07/22 00:03:09;;;;;;;11.48;6.38;;;13.80;99.90;;;;;;5053393;28;20048;-67
2023/07/22 00:05:35;;;;;;;11.80;7.22;;;13.90;99.90;;;;;;5053969;28;20040;-68
2023/07/22 00:08:01;;;;;;;10.65;6.97;;;13.90;99.90;;;;;;5053031;28;20470;-68
2023/07/22 00:10:27;;;;;;;12.45;6.95;;;13.90;99.90;;;;;;5053869;28;20048;-68
2023/07/22 00:12:53;;;;;;;9.18;6.30;;;13.90;99.90;;;;;;5053118;28;20102;-68
2023/07/22 00:15:20;;;;;;;12.00;7.00;;;14.00;99.90;;;;;;5053276;28;20052;-68
2023/07/22 00:17:46;;;;;;;11.18;5.80;;;14.00;99.90;;;;;;5053362;28;20088;-68
2023/07/22 00:20:12;;;;;;;9.18;6.50;;;14.00;99.90;;;;;;5052826;28;20041;-68
2023/07/22 00:22:39;;;;;;;8.65;5.55;;;14.00;99.90;;;;;;5052638;28;20049;-68
2023/07/22 00:25:08;;;;;;;8.98;5.75;;;14.00;99.90;;;;;;5053074;28;20404;-68
2023/07/22 00:27:33;;;;;;;8.75;6.20;;;14.00;99.90;;;;;;5052919;28;20044;-67
2023/07/22 00:29:59;;;;;;;9.38;6.90;;;14.00;99.90;;;;;;5052904;28;20049;-68
2023/07/22 00:32:25;;;;;;;9.88;6.70;;;13.90;99.90;;;;;;5053152;28;20119;-67
2023/07/22 00:34:50;;;;;;;10.43;6.35;;;13.90;99.90;;;;;;5053145;28;20048;-68
2023/07/22 00:37:16;;;;;;;7.78;4.80;;;13.80;99.90;;;;;;5052792;28;20117;-68
2023/07/22 00:39:42;;;;;;;8.80;5.28;;;13.80;99.90;;;;;;5052806;28;20058;-67
2023/07/22 00:42:08;;;;;;;8.02;4.82;;;13.80;99.90;;;;;;5052954;28;20537;-68
2023/07/22 00:44:33;;;;;;;7.25;5.10;;;13.70;99.90;;;;;;5052795;28;20037;-68
2023/07/22 00:47:00;;;;;;;7.53;5.95;;;13.70;99.90;;;;;;5052603;28;20050;-68
2023/07/22 00:49:27;;;;;;;9.45;5.80;;;13.60;99.90;;;;;;5052617;28;20075;-67
2023/07/22 00:51:53;;;;;;;8.98;6.53;;;13.60;99.90;;;;;;5053139;28;20055;-68
2023/07/22 00:54:19;;;;;;;7.22;5.68;;;13.60;99.90;;;;;;5052552;28;20466;-68
2023/07/22 00:56:46;;;;;;;7.15;4.97;;;13.50;99.90;;;;;;5052900;28;20075;-68
2023/07/22 00:59:13;;;;;;;9.60;5.55;;;13.50;99.90;;;;;;5052476;28;20048;-67
2023/07/22 01:01:40;;;;;;;8.25;5.38;;;13.50;99.90;;;;;;5052481;28;20056;-67
2023/07/22 01:04:07;;;;;;;8.10;6.32;;;13.50;99.90;;;;;;5053439;28;20045;-68
2023/07/22 01:06:34;;;;;;;6.95;5.35;;;13.50;99.90;;;;;;5052386;28;20057;-68
2023/07/22 01:09:00;;;;;;;7.85;5.55;;;13.40;99.90;;;;;;5018261;28;20486;-68
2023/07/22 01:11:26;;;;;;;8.45;5.75;;;13.50;99.90;;;;;;5052561;28;20092;-68
2023/07/22 01:13:57;;;;;;;9.50;6.38;;;13.40;99.90;;;;;;5052381;28;20048;-68
2023/07/22 01:16:25;;;;;;;9.32;5.93;;;13.40;99.90;;;;;;5035035;28;20056;-68
2023/07/22 01:18:51;;;;;;;8.48;6.30;;;13.30;99.90;;;;;;5052431;28;20051;-67
2023/07/22 01:21:17;;;;;;;9.68;6.07;;;13.30;99.90;;;;;;5034813;28;20414;-67
2023/07/22 01:23:43;;;;;;;8.60;6.18;;;13.30;99.90;;;;;;5034463;28;20077;-68
2023/07/22 01:26:09;;;;;;;11.32;6.53;;;13.30;99.90;;;;;;5052773;28;20057;-68
2023/07/22 01:28:35;;;;;;;10.88;6.55;;;13.30;99.90;;;;;;5052202;28;20451;-68
2023/07/22 01:31:01;;;;;;;13.02;7.22;;;13.30;99.90;;;;;;5035204;28;20059;-68
2023/07/22 01:33:27;;;;;;;8.68;5.97;;;13.30;99.90;;;;;;5052547;28;20322;-68
2023/07/22 01:35:53;;;;;;;8.10;5.68;;;13.30;99.90;;;;;;5052222;28;20056;-68
2023/07/22 01:38:19;;;;;;;11.77;7.75;;;13.40;99.90;;;;;;5052171;28;20056;-68
2023/07/22 01:40:45;;;;;;;9.50;6.45;;;13.30;99.90;;;;;;5034661;28;20394;-67
2023/07/22 01:43:10;;;;;;;8.77;6.43;;;13.30;99.90;;;;;;5052405;28;20124;-68
2023/07/22 01:45:38;;;;;;;6.82;5.18;;;13.30;99.90;;;;;;5051910;28;20057;-68
2023/07/22 01:48:04;;;;;;;7.90;5.57;;;13.20;99.90;;;;;;5052527;28;20127;-68
2023/07/22 01:50:30;;;;;;;9.65;6.68;;;13.20;99.90;;;;;;5052248;28;20121;-67
2023/07/22 01:52:55;;;;;;;8.13;6.15;;;13.20;99.90;;;;;;5052368;28;20433;-67
2023/07/22 01:55:21;;;;;;;9.10;6.18;;;13.20;99.90;;;;;;5034478;28;20110;-67
2023/07/22 01:57:47;;;;;;;13.68;6.97;;;13.10;99.90;;;;;;5052211;28;20055;-68
2023/07/22 02:00:14;;;;;;;9.88;6.20;;;13.10;99.90;;;;;;5034395;28;20482;-68
2023/07/22 02:02:43;;;;;;;9.32;5.70;;;13.00;99.90;;;;;;5035003;28;20400;-67
2023/07/22 02:05:10;;;;;;;10.57;6.43;;;13.00;99.90;;;;;;5051727;28;20076;-67
2023/07/22 02:07:36;;;;;;;7.55;5.75;;;12.90;99.90;;;;;;5051845;28;20049;-68
2023/07/22 02:10:02;;;;;;;9.90;6.15;;;12.90;99.90;;;;;;5051679;28;20057;-68
2023/07/22 02:12:27;;;;;;;11.23;6.00;;;12.90;99.90;;;;;;5034250;28;20045;-68
2023/07/22 02:14:53;;;;;;;7.57;6.13;;;12.80;99.90;;;;;;5052118;28;20123;-68
2023/07/22 02:17:20;;;;;;;8.20;5.53;;;12.70;99.90;;;;;;5053333;28;20049;-67
2023/07/22 02:19:46;;;;;;;7.68;4.88;;;12.70;99.90;;;;;;5037833;28;20629;-67
2023/07/22 02:22:12;;;;;;;10.32;6.15;;;12.60;99.90;;;;;;5055839;28;20084;-68
2023/07/22 02:24:38;;;;;;;8.93;6.55;;;12.60;99.90;;;;;;5055784;28;20111;-68
2023/07/22 02:27:04;;;;;;;8.32;6.18;;;12.60;99.90;;;;;;5054997;28;20084;-69
2023/07/22 02:29:33;;;;;;;9.75;6.10;;;12.60;99.90;;;;;;5055775;28;20056;-68
2023/07/22 02:31:59;;;;;;;8.70;5.72;;;12.60;99.90;;;;;;5055163;28;20136;-68
2023/07/22 02:34:24;;;;;;;7.22;5.68;;;12.60;99.90;;;;;;5055435;28;20081;-67
2023/07/22 02:36:50;;;;;;;11.75;5.88;;;12.60;99.90;;;;;;5055585;28;20493;-67
2023/07/22 02:39:16;;;;;;;10.35;5.72;;;12.50;99.90;;;;;;5055187;28;20091;-68
2023/07/22 02:41:42;;;;;;;6.97;5.65;;;12.50;99.90;;;;;;5054992;28;20485;-68
2023/07/22 02:44:08;;;;;;;9.93;6.22;;;12.50;99.90;;;;;;5055005;28;20120;-68
2023/07/22 02:46:33;;;;;;;8.70;6.05;;;12.40;99.90;;;;;;5054974;28;20047;-68
2023/07/22 02:48:59;;;;;;;11.38;5.43;;;12.40;99.90;;;;;;5054962;28;20064;-67
2023/07/22 02:51:25;;;;;;;8.80;6.25;;;12.40;99.90;;;;;;5054938;28;20099;-68
2023/07/22 02:53:50;;;;;;;10.20;6.07;;;12.30;99.90;;;;;;5055130;28;20041;-68
2023/07/22 02:56:16;;;;;;;8.48;6.05;;;12.30;99.90;;;;;;5054913;28;20589;-68
2023/07/22 02:58:42;;;;;;;8.15;5.60;;;12.20;99.90;;;;;;5054872;28;20041;-68
2023/07/22 03:01:08;;;;;;;8.15;5.25;;;12.20;99.90;;;;;;5037713;28;20492;-68
2023/07/22 03:03:34;;;;;;;8.77;6.13;;;12.20;99.90;;;;;;5054705;28;20047;-68
2023/07/22 03:06:07;;;;;;;10.50;6.40;;;12.10;99.90;;;;;;5055538;28;20048;-67
2023/07/22 03:08:33;;;;;;;;;;;12.10;99.90;;;;;;5055482;28;20099;-68
2023/07/22 03:10:59;;;;;;;10.73;5.72;;;12.00;99.90;;;;;;5055334;28;19929;-68
2023/07/22 03:13:29;;;;;;;9.60;6.55;;;11.90;99.90;;;;;;5054945;28;20492;-67
2023/07/22 03:15:55;;;;;;;11.20;6.75;;;11.90;99.90;;;;;;5055279;28;20049;-67
2023/07/22 03:18:21;;;;;;;8.27;5.28;;;11.90;99.90;;;;;;5054395;28;20574;-68
2023/07/22 03:20:47;;;;;;;9.52;6.43;;;11.90;99.90;;;;;;5036775;28;20088;-68
2023/07/22 03:23:12;;;;;;;8.00;5.82;;;11.80;99.90;;;;;;5054547;28;20047;-68
2023/07/22 03:25:38;;;;;;;9.90;5.68;;;11.80;99.90;;;;;;5054468;28;20388;-68
2023/07/22 03:28:06;;;;;;;8.13;5.78;;;11.80;99.90;;;;;;5036106;28;20052;-68
2023/07/22 03:30:31;;;;;;;8.02;5.90;;;11.80;99.90;;;;;;5053941;28;20469;-68
2023/07/22 03:32:57;;;;;;;7.82;5.75;;;11.80;99.90;;;;;;5054159;28;20045;-68
2023/07/22 03:35:23;;;;;;;6.72;4.88;;;11.80;99.90;;;;;;5054546;28;20041;-68
2023/07/22 03:37:49;;;;;;;8.93;6.00;;;11.80;99.90;;;;;;5054410;28;20056;-68
2023/07/22 03:40:19;;;;;;;6.00;5.30;;;11.80;99.90;;;;;;5053769;28;20056;-67
2023/07/22 03:42:50;;;;;;;8.32;5.93;;;11.80;99.90;;;;;;5053985;28;20082;-68
2023/07/22 03:45:17;;;;;;;8.80;5.70;;;11.90;99.90;;;;;;5054510;28;20045;-68
2023/07/22 03:47:45;;;;;;;9.38;5.93;;;11.90;99.90;;;;;;5053835;28;20060;-68
2023/07/22 03:50:11;;;;;;;8.32;5.45;;;11.90;99.90;;;;;;5053487;28;20507;-67
2023/07/22 03:52:37;;;;;;;7.75;6.15;;;12.00;99.90;;;;;;5053817;28;20124;-67
2023/07/22 03:55:03;;;;;;;5.75;4.78;;;12.00;99.90;;;;;;5036318;28;20041;-68
2023/07/22 03:57:29;;;;;;;8.05;5.82;;;12.10;99.90;;;;;;5054291;28;20083;-67
2023/07/22 03:59:55;;;;;;;8.73;5.38;;;12.10;99.90;;;;;;5036662;28;20468;-67
2023/07/22 04:02:21;;;;;;;5.97;5.13;;;12.10;99.90;;;;;;5035698;28;20378;-68
2023/07/22 04:04:47;;;;;;;8.05;5.05;;;12.30;99.90;;;;;;5054109;28;20041;-68
2023/07/22 04:07:13;;;;;;;9.48;6.18;;;12.30;99.90;;;;;;5053434;28;20574;-68
2023/07/22 04:09:40;;;;;;;7.68;5.60;;;12.40;99.90;;;;;;5053654;28;20060;-68
2023/07/22 04:12:06;;;;;;;7.18;5.55;;;12.50;99.90;;;;;;5053353;28;20084;-68
2023/07/22 04:14:32;;;;;;;8.77;6.05;;;12.50;99.90;;;;;;5053308;28;20079;-68
2023/07/22 04:16:58;;;;;;;8.75;6.00;;;12.60;99.90;;;;;;5019854;28;20048;-68
2023/07/22 04:19:24;;;;;;;9.73;6.70;;;12.60;99.90;;;;;;5053224;28;20084;-68
2023/07/22 04:21:49;;;;;;;10.18;6.40;;;12.70;99.90;;;;;;5053256;28;20183;-68
2023/07/22 04:24:15;;;;;;;8.57;5.65;;;12.80;99.90;;;;;;5053557;28;20132;-68
2023/07/22 04:26:45;;;;;;;9.48;7.30;;;12.80;99.90;;;;;;5053352;28;20045;-68
2023/07/22 04:29:12;;;;;;;12.82;6.55;;;12.90;99.90;;;;;;5035543;28;20064;-69
2023/07/22 04:31:38;;;;;;;9.05;6.82;;;12.90;99.90;;;;;;5053058;28;20088;-68
2023/07/22 04:34:05;;;;;;;11.75;7.97;;;13.00;99.90;;;;;;5034845;28;20485;-68
2023/07/22 04:36:31;;;;;;;10.52;6.85;;;13.00;99.90;;;;;;5035856;28;20049;-68
2023/07/22 04:38:56;;;;;;;9.80;6.25;;;13.00;99.90;;;;;;5035301;28;20079;-68
2023/07/22 04:41:22;;;;;;;6.82;5.47;;;13.10;99.90;;;;;;5052370;28;20051;-68
2023/07/22 04:43:48;;;;;;;11.00;7.00;;;13.10;99.90;;;;;;5035823;28;20084;-68
2023/07/22 04:46:14;;;;;;;9.43;7.00;;;13.10;99.90;;;;;;5053465;28;20045;-68
2023/07/22 04:48:39;;;;;;;10.27;7.13;;;13.20;99.90;;;;;;5052707;28;20462;-68
2023/07/22 04:51:05;;;;;;;11.93;7.22;;;13.20;99.90;;;;;;5053321;28;20048;-68
2023/07/22 04:53:31;;;;;;;10.65;6.85;;;13.20;99.90;;;;;;5052471;28;20498;-68
2023/07/22 04:55:56;;;;;;;9.38;6.43;;;13.30;99.90;;;;;;5052930;28;20102;-68
2023/07/22 04:58:22;;;;;;;12.55;7.05;;;13.30;99.90;;;;;;5052549;28;20515;-68
2023/07/22 05:00:51;;;;;;;8.43;6.22;;;13.40;99.90;;;;;;5052666;28;20084;-68
2023/07/22 05:03:18;;;;;;;9.77;6.05;;;13.40;99.90;;;;;;5052972;28;20049;-68
2023/07/22 05:05:44;;;;;;;9.95;7.55;;;13.40;99.90;;;;;;5052501;28;20057;-68
2023/07/22 05:08:10;;;;;;;11.90;7.22;;;13.50;99.90;;;;;;5034759;28;20560;-68
2023/07/22 05:10:39;;;;;;;11.43;6.97;;;13.60;99.90;;;;;;5052154;28;20056;-68
2023/07/22 05:13:05;;;;;;;11.52;8.23;;;13.60;99.90;;;;;;5052135;28;20049;-68
2023/07/22 05:15:30;;;;;;;16.23;8.30;;;13.70;99.90;;;;;;5052179;28;20068;-68
2023/07/22 05:17:56;;;;;;;13.10;8.18;;;13.70;99.90;;;;;;5051864;28;20047;-68
2023/07/22 05:20:22;;;;;;;15.25;8.65;;;13.70;99.90;;;;;;5052317;28;20045;-68
2023/07/22 05:22:48;;;;;;;12.55;8.07;;;13.80;99.90;;;;;;5052224;28;20506;-68
2023/07/22 05:25:14;;;;;;;14.68;8.85;;;13.80;99.90;;;;;;5052372;28;20103;-68
2023/07/22 05:27:40;;;;;;;12.80;8.93;;;13.90;99.90;;;;;;5051824;28;20044;-68
2023/07/22 05:30:07;;;;;;;11.63;8.02;;;13.90;99.90;;;;;;5052075;28;20053;-69
2023/07/22 05:32:32;;;;;;;13.30;9.13;;;14.00;99.90;;;;;;5052617;28;20067;-68
2023/07/22 05:34:58;;;;;;;10.98;6.55;;;14.00;99.90;;;;;;5052133;28;20458;-68
2023/07/22 05:37:25;;;;;;;12.65;8.90;;;14.10;99.90;;;;;;5052003;28;20052;-68
2023/07/22 05:39:51;;;;;;;14.65;9.20;;;14.20;99.90;;;;;;5051955;28;20045;-68
2023/07/22 05:42:17;;;;;;;11.43;8.05;;;14.30;99.90;;;;;;5051591;28;20347;-68
2023/07/22 05:44:43;;;;;;;11.30;7.85;;;14.80;99.90;;;;;;5051808;28;20136;-68
2023/07/22 05:47:09;;;;;;;12.15;9.32;;;14.40;99.90;;;;;;5052353;28;20465;-68
2023/07/22 05:49:34;;;;;;;17.60;9.57;;;14.60;99.90;;;;;;5052307;28;20511;-68
2023/07/22 05:52:00;;;;;;;10.13;6.13;;;14.80;99.90;;;;;;5052496;28;20076;-68
2023/07/22 05:54:26;;;;;;;14.75;9.43;;;14.90;99.90;;;;;;5055737;28;20423;-68
2023/07/22 05:56:52;;;;;;;16.02;10.65;;;15.00;99.90;;;;;;5038287;28;20090;-69
2023/07/22 05:59:17;;;;;;;11.60;8.50;;;15.10;99.90;;;;;;5055669;28;20419;-68
2023/07/22 06:01:43;;;;;;;14.50;8.95;;;15.20;99.90;;;;;;5055332;28;20065;-67
2023/07/22 06:04:09;;;;;;;14.27;9.02;;;15.30;99.90;;;;;;5038051;28;20461;-67
2023/07/22 06:06:35;;;;;;;13.30;8.93;;;15.40;99.90;;;;;;5055578;28;20402;-66
2023/07/22 06:09:01;;;;;;;15.45;8.85;;;15.50;99.90;;;;;;5055129;28;20053;-68
2023/07/22 06:11:28;;;;;;;13.25;9.90;;;15.70;99.90;;;;;;5037660;28;20522;-68
2023/07/22 06:13:54;;;;;;;11.77;8.02;;;15.70;99.90;;;;;;5055265;28;20120;-67
2023/07/22 06:16:19;;;;;;;13.10;9.55;;;15.90;99.90;;;;;;5055364;28;20076;-67
2023/07/22 06:18:45;;;;;;;14.88;10.10;;;16.00;99.90;;;;;;5055304;28;20049;-67
2023/07/22 06:21:11;;;;;;;12.82;9.80;;;16.00;99.90;;;;;;5055368;28;20045;-69
2023/07/22 06:23:37;;;;;;;13.43;8.55;;;16.10;99.90;;;;;;5055366;28;20098;-67
2023/07/22 06:26:02;;;;;;;13.75;8.75;;;16.20;99.90;;;;;;5055426;28;20482;-67
2023/07/22 06:28:28;;;;;;;13.18;8.88;;;16.30;99.90;;;;;;5055550;28;20200;-66
2023/07/22 06:30:54;;;;;;;12.55;8.98;;;16.50;99.90;;;;;;5055035;28;20045;-66
2023/07/22 06:33:19;;;;;;;16.05;9.30;;;16.60;99.90;;;;;;5055167;28;20049;-67
2023/07/22 06:35:46;;;;;;;12.20;8.90;;;16.80;99.90;;;;;;5055286;28;20412;-67
2023/07/22 06:38:11;;;;;;;15.00;9.77;;;17.00;99.90;;;;;;5037156;28;20065;-67
2023/07/22 06:40:37;;;;;;;12.55;9.40;;;17.20;99.90;;;;;;5054840;28;20071;-67
2023/07/22 06:43:03;;;;;;;10.70;7.88;;;17.40;99.90;;;;;;5054990;28;20041;-69
2023/07/22 06:45:28;;;;;;;9.40;6.07;;;17.40;99.90;;;;;;5037290;28;20112;-69
2023/07/22 06:47:54;;;;;;;11.30;8.45;;;17.40;99.90;;;;;;5036987;28;20052;-69
2023/07/22 06:50:20;;;;;;;11.65;7.75;;;17.60;99.90;;;;;;5037048;28;20045;-69
2023/07/22 06:52:45;;;;;;;10.93;7.20;;;17.90;99.90;;;;;;5054774;28;20489;-68
2023/07/22 06:55:11;;;;;;;12.35;7.65;;;18.40;99.90;;;;;;5055139;28;20159;-69
2023/07/22 06:57:37;;;;;;;12.90;8.05;;;18.50;99.90;;;;;;5055020;28;20040;-69
2023/07/22 07:00:05;;;;;;;15.57;7.88;;;18.60;99.90;;;;;;5054755;28;20131;-68
2023/07/22 07:02:30;;;;;;;10.98;7.22;;;18.80;99.90;;;;;;5054626;28;20084;-69
2023/07/22 07:04:56;;;;;;;13.40;8.68;;;19.10;99.90;;;;;;5054916;28;20037;-69
2023/07/22 07:07:22;;;;;;;10.25;8.15;;;19.30;99.90;;;;;;5054658;28;20099;-69
2023/07/22 07:09:47;;;;;;;12.75;8.52;;;19.20;99.90;;;;;;5054844;28;20113;-69
2023/07/22 07:12:13;;;;;;;13.70;7.75;;;19.20;99.90;;;;;;5020153;28;20087;-69
2023/07/22 07:14:39;;;;;;;10.85;7.65;;;19.00;99.90;;;;;;5054230;28;20091;-69
2023/07/22 07:17:05;;;;;;;10.52;7.38;;;19.10;99.90;;;;;;5054412;28;20118;-69
2023/07/22 07:19:30;;;;;;;9.30;7.35;;;19.20;99.90;;;;;;5054760;28;20476;-68
2023/07/22 07:21:56;;;;;;;11.48;8.13;;;19.30;99.90;;;;;;5054253;28;20049;-69
2023/07/22 07:24:22;;;;;;;13.75;7.80;;;19.20;99.90;;;;;;5037050;28;20049;-67
2023/07/22 07:26:47;;;;;;;7.57;6.72;;;19.00;99.90;;;;;;5054163;28;20083;-67
2023/07/22 07:29:13;;;;;;;10.77;7.70;;;18.70;99.90;;;;;;5054476;28;20076;-68
2023/07/22 07:31:39;;;;;;;13.98;8.32;;;18.60;99.90;;;;;;5054162;28;20096;-68
2023/07/22 07:34:05;;;;;;;12.82;8.80;;;18.40;99.90;;;;;;5053987;28;20166;-68
2023/07/22 07:36:32;;;;;;;10.70;8.35;;;18.20;99.90;;;;;;5054091;28;20048;-68
2023/07/22 07:38:57;;;;;;;13.15;8.00;;;18.20;99.90;;;;;;5054040;28;20075;-69
2023/07/22 07:41:23;;;;;;;12.05;8.45;;;18.10;99.90;;;;;;5036101;28;20482;-69
2023/07/22 07:43:49;;;;;;;10.82;7.63;;;18.10;99.90;;;;;;5054055;28;20048;-69
2023/07/22 07:46:20;;;;;;;11.07;7.60;;;18.30;99.90;;;;;;5053440;28;20485;-69
2023/07/22 07:48:47;;;;;;;10.32;7.15;;;18.40;99.90;;;;;;5053880;28;20119;-69
2023/07/22 07:51:14;;;;;;;9.65;7.40;;;18.60;99.90;;;;;;5054339;28;20122;-68
2023/07/22 07:53:44;;;;;;;11.30;7.20;;;18.80;99.90;;;;;;5036084;28;20045;-69
2023/07/22 07:56:10;;;;;;;8.88;7.03;;;19.10;99.90;;;;;;5054091;28;20132;-69
2023/07/22 07:58:37;;;;;;;9.38;7.40;;;19.30;99.90;;;;;;5036117;28;20044;-69
2023/07/22 08:01:03;;;;;;;9.10;6.93;;;19.80;99.90;;;;;;5053692;28;20089;-69
2023/07/22 08:03:29;;;;;;;10.68;6.55;;;20.40;99.90;;;;;;5053441;28;20091;-69
2023/07/22 08:05:55;;;;;;;9.77;6.47;;;21.00;99.90;;;;;;5036109;28;20045;-69
2023/07/22 08:08:21;;;;;;;7.88;5.53;;;21.40;99.90;;;;;;5053716;28;20044;-69
2023/07/22 08:10:56;;;;;;;6.78;5.43;;;21.50;99.90;;;;;;5053701;28;20092;-69
2023/07/22 08:13:22;;;;;;;7.97;5.78;;;21.70;99.90;;;;;;5053305;28;20049;-69
2023/07/22 08:15:48;;;;;;;7.30;5.07;;;22.00;99.90;;;;;;5035344;28;20091;-69
2023/07/22 08:18:13;;;;;;;6.72;5.13;;;22.40;99.90;;;;;;5053921;28;20044;-69
2023/07/22 08:20:39;;;;;;;6.65;4.88;;;22.60;99.90;;;;;;5053717;28;20470;-70
2023/07/22 08:23:05;;;;;;;5.95;4.80;;;22.50;99.90;;;;;;5052824;28;20484;-69
2023/07/22 08:25:30;;;;;;;10.48;5.88;;;22.40;99.90;;;;;;5053008;28;20053;-69
2023/07/22 08:27:56;;;;;;;6.07;5.15;;;22.30;99.50;;;;;;5035288;28;20045;-70
2023/07/22 08:30:21;;;;;;;8.15;5.43;;;21.90;99.50;;;;;;5053021;28;20132;-70
2023/07/22 08:32:47;;;;;;;6.28;4.95;;;21.60;99.70;;;;;;5052981;28;20048;-70
2023/07/22 08:35:13;;;;;;;5.25;4.72;;;21.40;99.20;;;;;;5053019;28;20040;-69
2023/07/22 08:37:38;;;;;;;6.88;4.45;;;21.30;99.60;;;;;;5052980;28;20041;-71
2023/07/22 08:40:05;;;;;;;4.93;4.10;;;21.30;99.60;;;;;;5035351;28;20107;-69
2023/07/22 08:42:33;;;;;;;6.28;4.50;;;21.50;99.70;;;;;;5052703;28;20055;-69
2023/07/22 08:45:03;;;;;;;7.03;4.85;;;21.60;99.20;;;;;;5053302;28;20130;-69
2023/07/22 08:47:29;;;;;;;5.55;4.40;;;21.80;98.60;;;;;;5053163;28;20048;-70
2023/07/22 08:49:58;;;;;;;7.93;5.40;;;21.80;99.00;;;;;;5035972;28;20436;-69
2023/07/22 08:52:24;;;;;;;6.18;5.25;;;21.80;98.00;;;;;;5053050;28;20044;-69
2023/07/22 08:54:50;;;;;;;6.30;5.13;;;21.70;98.70;;;;;;5052894;28;20041;-69
2023/07/22 08:57:17;;;;;;;6.93;4.97;;;21.40;99.10;;;;;;5053101;28;20044;-69
2023/07/22 08:59:44;;;;;;;8.57;5.82;;;21.40;99.00;;;;;;5035259;28;20059;-69
2023/07/22 09:02:13;;;;;;;7.30;5.32;;;21.20;99.00;;;;;;5053137;28;20048;-70
2023/07/22 09:04:41;;;;;;;7.85;4.82;;;21.10;99.10;;;;;;5053127;28;20068;-69
2023/07/22 09:07:11;;;;;;;8.07;5.40;;;21.10;99.10;;;;;;5034626;28;20091;-67
2023/07/22 09:09:37;;;;;;;8.57;5.63;;;20.90;99.10;;;;;;5052550;28;20045;-69
2023/07/22 09:12:03;;;;;;;9.57;6.22;;;20.80;99.50;;;;;;5052616;28;20476;-68
2023/07/22 09:14:31;;;;;;;9.90;6.13;;;20.50;99.20;;;;;;5052582;28;20037;-67
2023/07/22 09:16:58;;;;;;;10.15;6.28;;;20.30;99.90;;;;;;5052132;28;20049;-68
2023/07/22 09:19:23;;;;;;;9.38;6.70;;;20.10;99.90;;;;;;5034839;28;20123;-67
2023/07/22 09:21:49;;;;;;;10.35;7.40;;;19.90;99.90;;;;;;5052113;28;20092;-67
2023/07/22 09:24:21;;;;;;;10.48;7.72;;;19.90;99.90;;;;;;5052733;28;20037;-68
2023/07/22 09:26:47;;;;;;;11.00;7.80;;;19.60;99.90;;;;;;5054102;28;20049;-68
2023/07/22 09:29:13;;;;;;;8.98;7.07;;;19.30;99.90;;;;;;5022863;28;20527;-69
2023/07/22 09:31:52;;;;;;;10.55;7.75;;;19.20;99.90;;;;;;5056400;28;20086;-68
2023/07/22 09:34:19;;;;;;;8.50;6.95;;;19.10;99.90;;;;;;5056378;28;20079;-69
2023/07/22 09:36:56;;;;;;;10.43;7.18;;;19.20;99.90;;;;;;5056190;28;20124;-69
2023/07/22 09:39:25;;;;;;;10.77;7.43;;;19.20;99.90;;;;;;5056103;28;20071;-69
2023/07/22 09:41:52;;;;;;;7.97;6.03;;;19.10;99.90;;;;;;5056369;28;20045;-69
2023/07/22 09:44:18;;;;;;;13.10;8.18;;;19.10;99.90;;;;;;5056071;28;20047;-69
2023/07/22 09:46:50;;;;;;;14.13;7.90;;;19.30;99.90;;;;;;5038004;28;20052;-69
2023/07/22 09:49:17;;;;;;;7.63;6.65;;;19.50;99.90;;;;;;5056346;28;20063;-69
2023/07/22 09:51:44;;;;;;;10.57;7.50;;;19.70;99.90;;;;;;5055894;28;20040;-69
2023/07/22 09:54:10;;;;;;;11.60;7.82;;;19.80;99.90;;;;;;5056135;28;20045;-69
2023/07/22 09:56:47;;;;;;;11.43;7.82;;;19.80;99.90;;;;;;5038000;28;20409;-69
2023/07/22 09:59:13;;;;;;;8.95;7.63;;;19.80;99.90;;;;;;5055784;28;20120;-69
2023/07/22 10:01:40;;;;;;;12.95;8.18;;;19.90;99.90;;;;;;5055790;28;20056;-69
2023/07/22 10:04:06;;;;;;;10.57;7.93;;;19.90;99.90;;;;;;5021514;28;20155;-69
2023/07/22 10:06:33;;;;;;;9.48;7.82;;;20.00;99.90;;;;;;5055584;28;20048;-68
2023/07/22 10:09:07;;;;;;;9.05;6.93;;;20.00;99.90;;;;;;5037762;28;20061;-68
2023/07/22 10:11:37;;;;;;;9.90;6.82;;;20.10;99.90;;;;;;5055089;28;20057;-68
2023/07/22 10:14:03;;;;;;;9.68;6.65;;;20.20;99.90;;;;;;5055368;28;20052;-68
2023/07/22 10:16:29;;;;;;;9.13;6.75;;;20.10;99.90;;;;;;5055417;28;20626;-68
2023/07/22 10:18:56;;;;;;;7.28;5.10;;;20.10;99.90;;;;;;5055367;28;20049;-68
2023/07/22 10:21:23;;;;;;;6.22;4.82;;;20.10;99.90;;;;;;5055843;28;20492;-68
2023/07/22 10:23:51;;;;;;;5.22;3.88;;;19.90;99.90;;;;;;5037895;28;20143;-68
2023/07/22 10:26:18;;;;;;;4.72;4.32;;;19.90;99.90;;;;;;5055402;28;20059;-68
2023/07/22 10:28:47;;;;;;;5.03;4.03;;;19.90;99.90;;;;;;5037530;28;20423;-69
2023/07/22 10:31:18;;;;;;;4.47;4.03;;;19.70;99.90;;;;;;5037839;28;20043;-69
2023/07/22 10:33:48;;;;;;;4.95;3.80;;;19.70;99.90;;;;;;5037514;28;20037;-69
2023/07/22 10:36:18;;;;;;;4.25;3.53;;;19.70;99.90;;;;;;5055132;28;20086;-69
2023/07/22 10:38:55;;;;;;;7.97;4.55;;;19.60;99.90;;;;;;5054366;28;20080;-69
2023/07/22 10:41:21;;;;;;;5.30;4.30;;;19.50;99.90;;;;;;5054721;28;20047;-69
2023/07/22 10:43:58;;;;;;;3.90;3.50;;;19.50;99.90;;;;;;5054918;28;20049;-69
2023/07/22 10:46:43;;;;;;;5.60;4.80;;;19.10;99.90;;;;;;5055334;28;20454;-70
2023/07/22 10:49:16;;;;;;;6.13;5.43;;;19.40;99.90;;;;;;5055593;28;20120;-70
2023/07/22 10:51:47;;;;;;;;;;;19.40;99.90;;;;;;5055370;28;20124;-70
2023/07/22 10:54:14;;;;;;;8.80;5.70;;;19.40;99.90;;;;;;5054776;28;20028;-71
2023/07/22 10:56:44;;;;;;;6.45;4.80;;;19.30;99.90;;;;;;5054709;28;20049;-70
2023/07/22 10:59:11;;;;;;;7.88;5.47;;;19.20;99.90;;;;;;5055338;28;20066;-70
2023/07/22 11:01:39;;;;;;;6.60;5.50;;;19.20;99.90;;;;;;5037589;28;20120;-70
2023/07/22 11:04:16;;;;;;;8.00;5.43;;;19.20;99.90;;;;;;5054562;28;20045;-70
2023/07/22 11:06:48;;;;;;;7.22;5.38;;;19.20;99.90;;;;;;5054592;28;20059;-69
2023/07/22 11:09:29;;;;;;;8.57;6.05;;;19.10;99.90;;;;;;5054510;28;20427;-69
2023/07/22 11:12:18;;;;;;;13.55;7.22;;;19.00;99.90;;;;;;5054995;28;20111;-68
2023/07/22 11:15:02;;;;;;;9.40;7.43;;;18.90;99.90;;;;;;5054406;28;20049;-68
2023/07/22 11:17:30;;;;;;;10.23;6.43;;;18.80;99.90;;;;;;5054727;28;20056;-69
2023/07/22 11:19:57;;;;;;;8.60;7.00;;;18.70;99.90;;;;;;5020198;28;20059;-68
2023/07/22 11:22:22;;;;;;;9.77;6.97;;;18.70;99.90;;;;;;5054326;28;20049;-68
2023/07/22 11:24:48;;;;;;;8.40;7.30;;;18.60;99.90;;;;;;5054187;28;20462;-69
2023/07/22 11:27:14;;;;;;;10.82;7.30;;;18.60;99.90;;;;;;5054275;28;20045;-68
2023/07/22 11:29:40;;;;;;;8.98;6.18;;;18.60;99.90;;;;;;5054036;28;20490;-69
2023/07/22 11:32:07;;;;;;;12.65;8.00;;;18.70;99.90;;;;;;5053975;28;20047;-68
2023/07/22 11:34:33;;;;;;;9.38;7.88;;;18.70;99.90;;;;;;5053763;28;20437;-69
2023/07/22 11:36:59;;;;;;;10.75;8.20;;;18.70;99.90;;;;;;5036524;28;20055;-68
2023/07/22 11:39:26;;;;;;;11.05;8.27;;;18.60;99.90;;;;;;5053924;28;20037;-68
2023/07/22 11:41:53;;;;;;;11.40;7.65;;;18.40;99.90;;;;;;5053360;28;20049;-70
2023/07/22 11:44:26;;;;;;;10.88;8.13;;;18.40;99.90;;;;;;5054115;28;20052;-68
2023/07/22 11:46:59;;;;;;;13.18;8.27;;;18.20;99.90;;;;;;5054362;28;20064;-69
2023/07/22 11:49:33;;;;;;;13.82;9.65;;;18.20;99.90;;;;;;5053014;28;20474;-68
2023/07/22 11:52:11;;;;;;;12.95;8.88;;;18.20;99.90;;;;;;5053914;28;20053;-70
2023/07/22 11:54:39;;;;;;;13.30;9.25;;;18.20;99.90;;;;;;5053702;28;20084;-70
2023/07/22 11:57:14;;;;;;;15.43;8.05;;;18.10;99.90;;;;;;5053670;28;20041;-68
2023/07/22 11:59:46;;;;;;;12.07;7.97;;;18.10;99.90;;;;;;5053558;28;20060;-68
2023/07/22 12:02:20;;;;;;;15.70;9.20;;;18.10;99.90;;;;;;5036239;28;20045;-67
2023/07/22 12:04:59;;;;;;;10.05;8.23;;;18.00;99.90;;;;;;5053585;28;20067;-68
2023/07/22 12:07:30;;;;;;;10.35;7.97;;;18.00;99.90;;;;;;5053509;28;20048;-66
2023/07/22 12:09:58;;;;;;;10.35;8.38;;;18.00;99.90;;;;;;5053631;28;20076;-68
2023/07/22 12:12:39;;;;;;;9.60;7.22;;;18.00;99.90;;;;;;5052860;28;20401;-68
2023/07/22 12:15:20;;;;;;;9.27;7.50;;;18.10;99.90;;;;;;5053336;28;20083;-67
2023/07/22 12:17:51;;;;;;;8.85;7.47;;;18.10;99.90;;;;;;5053241;28;20072;-67
2023/07/22 12:20:17;;;;;;;9.05;6.82;;;18.10;99.90;;;;;;5053326;28;20130;-68
2023/07/22 12:22:43;;;;;;;14.50;8.73;;;18.20;99.90;;;;;;5053602;28;20041;-68
2023/07/22 12:25:09;;;;;;;11.85;8.70;;;18.20;99.90;;;;;;5053192;28;20064;-67
2023/07/22 12:27:36;;;;;;;9.18;7.30;;;18.20;99.90;;;;;;5035240;28;20450;-68
2023/07/22 12:30:02;;;;;;;9.70;8.15;;;18.20;99.90;;;;;;5053166;28;20132;-67
2023/07/22 12:32:28;;;;;;;11.05;7.80;;;18.20;99.90;;;;;;5052828;28;20123;-68
2023/07/22 12:34:54;;;;;;;8.85;7.95;;;18.10;99.90;;;;;;5052842;28;20080;-68
2023/07/22 12:37:20;;;;;;;9.45;8.18;;;18.10;99.90;;;;;;5035284;28;20053;-67
2023/07/22 12:39:45;;;;;;;9.43;7.15;;;18.10;99.90;;;;;;5052771;28;20045;-68
2023/07/22 12:42:11;;;;;;;7.72;6.95;;;18.00;99.90;;;;;;5052283;28;20538;-68